sensor_id;sensor_type;location;lat;lon;timestamp;pressure;altitude;pressure_sealevel;temperature;humidity
69245;BME280;56357;52.304;4.870;2022-11-20T00:01:13;101645.78;;;14.68;53.76
69245;BME280;56357;52.304;4.870;2022-11-20T00:03:40;101648.00;;;14.77;53.37
69245;BME280;56357;52.304;4.870;2022-11-20T00:06:09;101651.63;;;14.78;53.78
69245;BME280;56357;52.304;4.870;2022-11-20T00:08:36;101635.47;;;14.68;54.11
69245;BME280;56357;52.304;4.870;2022-11-20T00:11:14;101638.88;;;14.70;53.07
69245;BME280;56357;52.304;4.870;2022-11-20T00:13:41;101630.22;;;14.60;53.54
69245;BME280;56357;52.304;4.870;2022-11-20T00:16:10;101625.41;;;14.55;53.73
69245;BME280;56357;52.304;4.870;2022-11-20T00:18:37;101628.16;;;14.44;53.64
69245;BME280;56357;52.304;4.870;2022-11-20T00:21:05;101622.91;;;14.36;54.01
69245;BME280;56357;52.304;4.870;2022-11-20T00:23:32;101620.88;;;14.43;53.90
69245;BME280;56357;52.304;4.870;2022-11-20T00:26:03;101615.16;;;14.38;53.89
69245;BME280;56357;52.304;4.870;2022-11-20T00:28:30;101611.66;;;14.31;53.98
69245;BME280;56357;52.304;4.870;2022-11-20T00:31:04;101613.88;;;14.22;54.08
69245;BME280;56357;52.304;4.870;2022-11-20T00:33:31;101614.03;;;14.27;53.84
69245;BME280;56357;52.304;4.870;2022-11-20T00:36:05;101615.34;;;14.25;54.02
69245;BME280;56357;52.304;4.870;2022-11-20T00:38:32;101611.94;;;14.23;54.06
69245;BME280;56357;52.304;4.870;2022-11-20T00:41:00;101614.63;;;14.29;53.76
69245;BME280;56357;52.304;4.870;2022-11-20T00:43:27;101611.84;;;14.29;53.99
69245;BME280;56357;52.304;4.870;2022-11-20T00:46:01;101616.28;;;14.19;54.13
69245;BME280;56357;52.304;4.870;2022-11-20T00:48:28;101618.22;;;14.18;54.47
69245;BME280;56357;52.304;4.870;2022-11-20T00:50:55;101618.44;;;14.17;53.91
69245;BME280;56357;52.304;4.870;2022-11-20T00:53:22;101615.91;;;14.15;54.37
69245;BME280;56357;52.304;4.870;2022-11-20T00:56:00;101625.25;;;14.21;53.78
69245;BME280;56357;52.304;4.870;2022-11-20T00:58:34;101632.47;;;14.10;54.24
69245;BME280;56357;52.304;4.870;2022-11-20T01:01:05;101632.69;;;14.09;54.06
69245;BME280;56357;52.304;4.870;2022-11-20T01:03:36;101625.66;;;14.06;54.31
69245;BME280;56357;52.304;4.870;2022-11-20T01:06:05;101626.19;;;14.15;53.84
69245;BME280;56357;52.304;4.870;2022-11-20T01:08:34;101629.25;;;13.95;54.64
69245;BME280;56357;52.304;4.870;2022-11-20T01:11:03;101616.66;;;13.93;54.37
69245;BME280;56357;52.304;4.870;2022-11-20T01:13:31;101610.38;;;13.97;54.37
69245;BME280;56357;52.304;4.870;2022-11-20T01:16:10;101609.44;;;14.03;54.22
69245;BME280;56357;52.304;4.870;2022-11-20T01:18:39;101598.78;;;14.00;53.93
69245;BME280;56357;52.304;4.870;2022-11-20T01:21:08;101598.00;;;13.93;54.18
69245;BME280;56357;52.304;4.870;2022-11-20T01:23:39;101594.50;;;13.98;54.13
69245;BME280;56357;52.304;4.870;2022-11-20T01:26:08;101597.75;;;13.95;54.39
69245;BME280;56357;52.304;4.870;2022-11-20T01:28:35;101604.41;;;13.94;54.41
69245;BME280;56357;52.304;4.870;2022-11-20T01:31:11;101606.59;;;13.92;54.34
69245;BME280;56357;52.304;4.870;2022-11-20T01:33:38;101604.91;;;13.91;54.11
69245;BME280;56357;52.304;4.870;2022-11-20T01:36:06;101610.00;;;13.94;54.32
69245;BME280;56357;52.304;4.870;2022-11-20T01:38:32;101586.53;;;14.01;54.05
69245;BME280;56357;52.304;4.870;2022-11-20T01:40:59;101593.22;;;14.00;54.04
69245;BME280;56357;52.304;4.870;2022-11-20T01:43:25;101588.66;;;13.88;54.21
69245;BME280;56357;52.304;4.870;2022-11-20T01:46:16;101589.97;;;13.85;54.09
69245;BME280;56357;52.304;4.870;2022-11-20T01:51:43;101596.25;;;13.81;54.52
69245;BME280;56357;52.304;4.870;2022-11-20T01:54:16;101586.47;;;13.90;54.76
69245;BME280;56357;52.304;4.870;2022-11-20T01:56:45;101586.97;;;13.87;54.46
69245;BME280;56357;52.304;4.870;2022-11-20T01:59:15;101578.44;;;13.82;54.77
69245;BME280;56357;52.304;4.870;2022-11-20T02:01:43;101570.03;;;13.88;54.37
69245;BME280;56357;52.304;4.870;2022-11-20T02:04:10;101568.19;;;13.82;54.38
69245;BME280;56357;52.304;4.870;2022-11-20T02:06:42;101573.97;;;13.81;54.43
69245;BME280;56357;52.304;4.870;2022-11-20T02:09:10;101572.56;;;13.90;53.98
69245;BME280;56357;52.304;4.870;2022-11-20T02:11:37;101568.53;;;13.56;55.11
69245;BME280;56357;52.304;4.870;2022-11-20T02:14:04;101578.25;;;13.83;54.40
69245;BME280;56357;52.304;4.870;2022-11-20T02:16:39;101571.50;;;13.91;54.61
69245;BME280;56357;52.304;4.870;2022-11-20T02:19:12;101573.00;;;13.75;54.44
69245;BME280;56357;52.304;4.870;2022-11-20T02:22:05;101565.94;;;13.91;54.05
69245;BME280;56357;52.304;4.870;2022-11-20T02:24:34;101567.44;;;13.75;54.30
69245;BME280;56357;52.304;4.870;2022-11-20T02:27:07;101574.06;;;13.74;54.20
69245;BME280;56357;52.304;4.870;2022-11-20T02:29:42;101569.47;;;13.79;54.52
69245;BME280;56357;52.304;4.870;2022-11-20T02:32:19;101576.44;;;13.89;54.70
69245;BME280;56357;52.304;4.870;2022-11-20T02:34:45;101572.50;;;13.78;54.16
69245;BME280;56357;52.304;4.870;2022-11-20T02:37:12;101575.59;;;13.70;54.43
69245;BME280;56357;52.304;4.870;2022-11-20T02:39:39;101574.84;;;13.63;54.13
69245;BME280;56357;52.304;4.870;2022-11-20T02:42:06;101557.03;;;13.82;53.72
69245;BME280;56357;52.304;4.870;2022-11-20T02:44:32;101554.56;;;13.74;54.76
69245;BME280;56357;52.304;4.870;2022-11-20T02:46:59;101557.00;;;13.52;55.03
69245;BME280;56357;52.304;4.870;2022-11-20T02:49:25;101550.34;;;13.71;54.36
69245;BME280;56357;52.304;4.870;2022-11-20T02:51:52;101549.16;;;13.79;54.10
69245;BME280;56357;52.304;4.870;2022-11-20T02:54:18;101548.63;;;13.70;54.42
69245;BME280;56357;52.304;4.870;2022-11-20T02:56:45;101545.59;;;13.72;54.44
69245;BME280;56357;52.304;4.870;2022-11-20T02:59:11;101549.31;;;13.66;54.08
69245;BME280;56357;52.304;4.870;2022-11-20T03:01:37;101551.91;;;13.67;54.45
69245;BME280;56357;52.304;4.870;2022-11-20T03:04:04;101549.72;;;13.69;54.19
69245;BME280;56357;52.304;4.870;2022-11-20T03:06:30;101550.59;;;13.82;53.85
69245;BME280;56357;52.304;4.870;2022-11-20T03:08:57;101557.53;;;13.79;54.33
69245;BME280;56357;52.304;4.870;2022-11-20T03:11:23;101540.34;;;13.64;54.76
69245;BME280;56357;52.304;4.870;2022-11-20T03:13:49;101533.47;;;13.66;54.65
69245;BME280;56357;52.304;4.870;2022-11-20T03:16:18;101537.38;;;13.65;54.74
69245;BME280;56357;52.304;4.870;2022-11-20T03:18:45;101533.72;;;13.65;54.59
69245;BME280;56357;52.304;4.870;2022-11-20T03:21:13;101527.25;;;13.53;54.62
69245;BME280;56357;52.304;4.870;2022-11-20T03:23:40;101528.09;;;13.71;54.63
69245;BME280;56357;52.304;4.870;2022-11-20T03:26:17;101530.94;;;13.65;54.37
69245;BME280;56357;52.304;4.870;2022-11-20T03:29:03;101525.50;;;13.70;54.40
69245;BME280;56357;52.304;4.870;2022-11-20T03:31:33;101529.00;;;13.65;54.04
69245;BME280;56357;52.304;4.870;2022-11-20T03:34:00;101517.16;;;13.70;54.40
69245;BME280;56357;52.304;4.870;2022-11-20T03:36:27;101524.31;;;13.77;54.48
69245;BME280;56357;52.304;4.870;2022-11-20T03:38:55;101522.88;;;13.75;53.92
69245;BME280;56357;52.304;4.870;2022-11-20T03:41:26;101516.69;;;13.73;54.01
69245;BME280;56357;52.304;4.870;2022-11-20T03:44:01;101516.41;;;13.63;54.26
69245;BME280;56357;52.304;4.870;2022-11-20T03:46:28;101511.81;;;13.39;54.40
69245;BME280;56357;52.304;4.870;2022-11-20T03:48:55;101507.63;;;13.48;54.32
69245;BME280;56357;52.304;4.870;2022-11-20T03:51:24;101510.72;;;13.58;54.29
69245;BME280;56357;52.304;4.870;2022-11-20T03:53:53;101506.09;;;13.52;54.62
69245;BME280;56357;52.304;4.870;2022-11-20T03:56:23;101500.00;;;13.73;54.17
69245;BME280;56357;52.304;4.870;2022-11-20T03:58:50;101480.34;;;13.68;53.51
69245;BME280;56357;52.304;4.870;2022-11-20T04:01:22;101497.13;;;13.50;54.91
69245;BME280;56357;52.304;4.870;2022-11-20T04:03:49;101493.16;;;13.57;54.50
69245;BME280;56357;52.304;4.870;2022-11-20T04:06:21;101485.88;;;13.56;54.21
69245;BME280;56357;52.304;4.870;2022-11-20T04:08:48;101487.09;;;13.60;54.29
69245;BME280;56357;52.304;4.870;2022-11-20T04:11:18;101479.69;;;13.54;54.37
69245;BME280;56357;52.304;4.870;2022-11-20T04:13:50;101463.72;;;13.50;54.48
69245;BME280;56357;52.304;4.870;2022-11-20T04:16:17;101478.81;;;13.72;54.00
69245;BME280;56357;52.304;4.870;2022-11-20T04:18:45;101478.16;;;13.58;54.35
69245;BME280;56357;52.304;4.870;2022-11-20T04:21:12;101480.44;;;13.50;54.24
69245;BME280;56357;52.304;4.870;2022-11-20T04:23:38;101473.47;;;13.41;54.57
69245;BME280;56357;52.304;4.870;2022-11-20T04:26:09;101470.91;;;13.57;54.28
69245;BME280;56357;52.304;4.870;2022-11-20T04:28:38;101470.03;;;13.57;54.43
69245;BME280;56357;52.304;4.870;2022-11-20T04:31:07;101476.16;;;13.47;54.81
69245;BME280;56357;52.304;4.870;2022-11-20T04:33:35;101478.50;;;13.50;54.42
69245;BME280;56357;52.304;4.870;2022-11-20T04:36:06;101466.63;;;13.55;54.48
69245;BME280;56357;52.304;4.870;2022-11-20T04:38:33;101464.22;;;13.58;54.47
69245;BME280;56357;52.304;4.870;2022-11-20T04:41:01;101457.91;;;13.51;54.61
69245;BME280;56357;52.304;4.870;2022-11-20T04:43:28;101463.41;;;13.58;54.14
69245;BME280;56357;52.304;4.870;2022-11-20T04:45:56;101458.22;;;13.61;54.52
69245;BME280;56357;52.304;4.870;2022-11-20T04:48:23;101463.41;;;13.58;54.14
69245;BME280;56357;52.304;4.870;2022-11-20T04:50:51;101458.34;;;13.66;54.12
69245;BME280;56357;52.304;4.870;2022-11-20T04:53:17;101451.16;;;13.59;54.37
69245;BME280;56357;52.304;4.870;2022-11-20T04:55:44;101450.22;;;13.65;54.14
69245;BME280;56357;52.304;4.870;2022-11-20T04:58:11;101443.75;;;13.53;54.19
69245;BME280;56357;52.304;4.870;2022-11-20T05:00:38;101449.00;;;13.61;54.18
69245;BME280;56357;52.304;4.870;2022-11-20T05:03:04;101451.88;;;13.54;54.27
69245;BME280;56357;52.304;4.870;2022-11-20T05:05:31;101447.78;;;13.57;54.05
69245;BME280;56357;52.304;4.870;2022-11-20T05:07:57;101445.69;;;13.52;54.26
69245;BME280;56357;52.304;4.870;2022-11-20T05:10:25;101444.06;;;13.63;53.95
69245;BME280;56357;52.304;4.870;2022-11-20T05:12:52;101432.19;;;13.56;54.28
69245;BME280;56357;52.304;4.870;2022-11-20T05:15:19;101436.31;;;13.65;54.05
69245;BME280;56357;52.304;4.870;2022-11-20T05:17:49;101430.34;;;13.50;54.14
69245;BME280;56357;52.304;4.870;2022-11-20T05:20:17;101438.00;;;13.66;53.82
69245;BME280;56357;52.304;4.870;2022-11-20T05:22:44;101444.38;;;13.55;54.19
69245;BME280;56357;52.304;4.870;2022-11-20T05:25:11;101440.38;;;13.51;54.07
69245;BME280;56357;52.304;4.870;2022-11-20T05:27:38;101446.53;;;13.53;54.07
69245;BME280;56357;52.304;4.870;2022-11-20T05:30:05;101436.28;;;13.53;54.30
69245;BME280;56357;52.304;4.870;2022-11-20T05:32:32;101451.22;;;13.41;54.22
69245;BME280;56357;52.304;4.870;2022-11-20T05:34:58;101441.19;;;13.69;53.82
69245;BME280;56357;52.304;4.870;2022-11-20T05:37:25;101445.72;;;13.64;53.57
69245;BME280;56357;52.304;4.870;2022-11-20T05:39:52;101442.81;;;13.59;54.00
69245;BME280;56357;52.304;4.870;2022-11-20T05:42:18;101449.00;;;13.61;54.11
69245;BME280;56357;52.304;4.870;2022-11-20T05:45:00;101450.56;;;13.57;54.51
69245;BME280;56357;52.304;4.870;2022-11-20T05:47:30;101455.38;;;13.50;54.79
69245;BME280;56357;52.304;4.870;2022-11-20T05:49:57;101453.91;;;13.47;54.88
69245;BME280;56357;52.304;4.870;2022-11-20T05:52:23;101448.97;;;13.49;54.67
69245;BME280;56357;52.304;4.870;2022-11-20T05:54:50;101463.53;;;13.63;53.82
69245;BME280;56357;52.304;4.870;2022-11-20T05:57:16;101462.78;;;13.56;54.43
69245;BME280;56357;52.304;4.870;2022-11-20T05:59:43;101462.88;;;13.49;54.88
69245;BME280;56357;52.304;4.870;2022-11-20T06:02:09;101456.41;;;13.67;54.53
69245;BME280;56357;52.304;4.870;2022-11-20T06:04:35;101461.06;;;13.55;54.59
69245;BME280;56357;52.304;4.870;2022-11-20T06:07:02;101434.53;;;13.82;53.15
69245;BME280;56357;52.304;4.870;2022-11-20T06:09:28;101443.00;;;13.87;52.93
69245;BME280;56357;52.304;4.870;2022-11-20T06:11:55;101437.06;;;13.72;53.31
69245;BME280;56357;52.304;4.870;2022-11-20T06:14:21;101441.25;;;13.63;54.40
69245;BME280;56357;52.304;4.870;2022-11-20T06:16:47;101442.22;;;13.57;54.12
69245;BME280;56357;52.304;4.870;2022-11-20T06:19:14;101437.38;;;13.64;53.90
69245;BME280;56357;52.304;4.870;2022-11-20T06:21:41;101438.59;;;13.68;54.43
69245;BME280;56357;52.304;4.870;2022-11-20T06:24:09;101437.75;;;13.56;54.39
69245;BME280;56357;52.304;4.870;2022-11-20T06:26:36;101437.88;;;13.61;54.63
69245;BME280;56357;52.304;4.870;2022-11-20T06:29:02;101441.59;;;13.85;53.60
69245;BME280;56357;52.304;4.870;2022-11-20T06:31:29;101430.66;;;13.71;54.33
69245;BME280;56357;52.304;4.870;2022-11-20T06:33:57;101436.06;;;13.66;53.81
69245;BME280;56357;52.304;4.870;2022-11-20T06:36:24;101437.22;;;13.77;53.56
69245;BME280;56357;52.304;4.870;2022-11-20T06:38:50;101415.91;;;13.83;52.52
69245;BME280;56357;52.304;4.870;2022-11-20T06:41:19;101410.81;;;13.91;52.97
69245;BME280;56357;52.304;4.870;2022-11-20T06:43:46;101414.09;;;13.88;52.64
69245;BME280;56357;52.304;4.870;2022-11-20T06:46:14;101415.13;;;13.64;52.87
69245;BME280;56357;52.304;4.870;2022-11-20T06:48:42;101410.03;;;13.61;53.10
69245;BME280;56357;52.304;4.870;2022-11-20T06:51:09;101404.75;;;13.71;52.99
69245;BME280;56357;52.304;4.870;2022-11-20T06:53:36;101422.06;;;13.73;52.64
69245;BME280;56357;52.304;4.870;2022-11-20T06:56:03;101416.56;;;13.55;53.07
69245;BME280;56357;52.304;4.870;2022-11-20T06:58:32;101418.28;;;13.56;52.97
69245;BME280;56357;52.304;4.870;2022-11-20T07:00:59;101412.56;;;13.62;52.86
69245;BME280;56357;52.304;4.870;2022-11-20T07:03:25;101400.00;;;13.60;52.49
69245;BME280;56357;52.304;4.870;2022-11-20T07:05:55;101402.78;;;13.60;52.84
69245;BME280;56357;52.304;4.870;2022-11-20T07:08:22;101392.66;;;13.65;52.71
69245;BME280;56357;52.304;4.870;2022-11-20T07:10:50;101395.16;;;13.55;52.86
69245;BME280;56357;52.304;4.870;2022-11-20T07:13:16;101399.16;;;13.59;52.60
69245;BME280;56357;52.304;4.870;2022-11-20T07:15:43;101399.84;;;13.55;52.96
69245;BME280;56357;52.304;4.870;2022-11-20T07:18:09;101394.44;;;13.60;52.76
69245;BME280;56357;52.304;4.870;2022-11-20T07:20:36;101397.75;;;13.80;52.21
69245;BME280;56357;52.304;4.870;2022-11-20T07:23:02;101399.75;;;13.61;52.63
69245;BME280;56357;52.304;4.870;2022-11-20T07:25:28;101395.63;;;13.64;52.85
69245;BME280;56357;52.304;4.870;2022-11-20T07:27:59;101409.59;;;13.75;53.91
69245;BME280;56357;52.304;4.870;2022-11-20T07:30:29;101401.28;;;13.99;54.08
69245;BME280;56357;52.304;4.870;2022-11-20T07:32:56;101406.72;;;13.82;54.64
69245;BME280;56357;52.304;4.870;2022-11-20T07:35:23;101411.38;;;13.70;55.06
69245;BME280;56357;52.304;4.870;2022-11-20T07:37:50;101405.84;;;13.82;55.19
69245;BME280;56357;52.304;4.870;2022-11-20T07:40:17;101410.34;;;13.83;54.89
69245;BME280;56357;52.304;4.870;2022-11-20T07:42:51;101412.75;;;13.79;54.85
69245;BME280;56357;52.304;4.870;2022-11-20T07:45:18;101402.09;;;13.76;54.81
69245;BME280;56357;52.304;4.870;2022-11-20T07:47:45;101409.97;;;13.79;55.43
69245;BME280;56357;52.304;4.870;2022-11-20T07:50:12;101399.66;;;13.79;54.96
69245;BME280;56357;52.304;4.870;2022-11-20T07:52:39;101397.75;;;13.80;55.15
69245;BME280;56357;52.304;4.870;2022-11-20T07:55:07;101396.19;;;13.84;54.88
69245;BME280;56357;52.304;4.870;2022-11-20T07:57:33;101393.13;;;13.74;55.04
69245;BME280;56357;52.304;4.870;2022-11-20T08:00:00;101389.78;;;14.07;54.05
69245;BME280;56357;52.304;4.870;2022-11-20T08:02:26;101392.94;;;14.10;53.72
69245;BME280;56357;52.304;4.870;2022-11-20T08:04:53;101382.28;;;14.19;54.36
69245;BME280;56357;52.304;4.870;2022-11-20T08:07:19;101399.72;;;14.03;53.91
69245;BME280;56357;52.304;4.870;2022-11-20T08:09:45;101394.47;;;13.95;54.10
69245;BME280;56357;52.304;4.870;2022-11-20T08:12:20;101390.50;;;13.91;54.42
69245;BME280;56357;52.304;4.870;2022-11-20T08:15:05;101387.59;;;13.97;54.58
69245;BME280;56357;52.304;4.870;2022-11-20T08:17:31;101383.25;;;14.01;54.24
69245;BME280;56357;52.304;4.870;2022-11-20T08:19:58;101380.22;;;14.14;53.87
69245;BME280;56357;52.304;4.870;2022-11-20T08:22:24;101383.84;;;14.03;53.95
69245;BME280;56357;52.304;4.870;2022-11-20T08:24:51;101375.59;;;14.08;53.95
69245;BME280;56357;52.304;4.870;2022-11-20T08:27:17;101374.81;;;14.31;53.54
69245;BME280;56357;52.304;4.870;2022-11-20T08:29:43;101375.50;;;14.03;54.38
69245;BME280;56357;52.304;4.870;2022-11-20T08:32:10;101381.06;;;14.03;54.52
69245;BME280;56357;52.304;4.870;2022-11-20T08:34:36;101384.59;;;14.22;54.48
69245;BME280;56357;52.304;4.870;2022-11-20T08:37:03;101382.94;;;14.32;53.87
69245;BME280;56357;52.304;4.870;2022-11-20T08:39:29;101381.94;;;14.27;54.05
69245;BME280;56357;52.304;4.870;2022-11-20T08:41:55;101389.78;;;14.18;54.37
69245;BME280;56357;52.304;4.870;2022-11-20T08:44:22;101404.06;;;14.22;55.30
69245;BME280;56357;52.304;4.870;2022-11-20T08:46:48;101400.22;;;14.11;55.49
69245;BME280;56357;52.304;4.870;2022-11-20T08:49:15;101404.69;;;14.12;55.10
69245;BME280;56357;52.304;4.870;2022-11-20T08:51:42;101391.84;;;14.11;55.35
69245;BME280;56357;52.304;4.870;2022-11-20T08:54:09;101382.69;;;14.34;54.99
69245;BME280;56357;52.304;4.870;2022-11-20T08:56:35;101370.56;;;14.40;54.46
69245;BME280;56357;52.304;4.870;2022-11-20T08:59:02;101371.66;;;14.27;54.91
69245;BME280;56357;52.304;4.870;2022-11-20T09:01:29;101367.66;;;14.12;55.28
69245;BME280;56357;52.304;4.870;2022-11-20T09:03:56;101372.25;;;14.29;54.50
69245;BME280;56357;52.304;4.870;2022-11-20T09:06:22;101369.47;;;14.29;54.71
69245;BME280;56357;52.304;4.870;2022-11-20T09:08:53;101369.09;;;14.37;54.14
69245;BME280;56357;52.304;4.870;2022-11-20T09:11:19;101360.88;;;14.54;54.03
69245;BME280;56357;52.304;4.870;2022-11-20T09:13:46;101359.06;;;14.36;54.08
69245;BME280;56357;52.304;4.870;2022-11-20T09:16:13;101349.25;;;14.34;54.65
69245;BME280;56357;52.304;4.870;2022-11-20T09:18:39;101354.28;;;14.60;53.73
69245;BME280;56357;52.304;4.870;2022-11-20T09:21:11;101351.13;;;14.68;54.06
69245;BME280;56357;52.304;4.870;2022-11-20T09:23:38;101352.31;;;14.72;54.12
69245;BME280;56357;52.304;4.870;2022-11-20T09:26:10;101351.69;;;14.82;53.74
69245;BME280;56357;52.304;4.870;2022-11-20T09:28:37;101342.03;;;14.73;53.73
69245;BME280;56357;52.304;4.870;2022-11-20T09:31:23;101346.69;;;14.55;54.46
69245;BME280;56357;52.304;4.870;2022-11-20T09:33:50;101344.81;;;14.73;54.16
69245;BME280;56357;52.304;4.870;2022-11-20T09:36:17;101334.03;;;14.64;53.95
69245;BME280;56357;52.304;4.870;2022-11-20T09:38:45;101331.47;;;14.75;54.31
69245;BME280;56357;52.304;4.870;2022-11-20T09:41:29;101323.19;;;14.51;54.62
69245;BME280;56357;52.304;4.870;2022-11-20T09:46:54;101325.75;;;14.81;53.73
69245;BME280;56357;52.304;4.870;2022-11-20T09:49:41;101315.16;;;14.95;53.84
69245;BME280;56357;52.304;4.870;2022-11-20T09:54:47;101318.84;;;14.84;53.65
69245;BME280;56357;52.304;4.870;2022-11-20T09:57:18;101319.03;;;15.22;52.37
69245;BME280;56357;52.304;4.870;2022-11-20T09:59:51;101316.22;;;15.05;52.50
69245;BME280;56357;52.304;4.870;2022-11-20T10:04:53;101317.16;;;15.11;51.82
69245;BME280;56357;52.304;4.870;2022-11-20T10:07:27;101300.06;;;15.07;52.00
69245;BME280;56357;52.304;4.870;2022-11-20T10:09:56;101287.56;;;15.10;52.65
69245;BME280;56357;52.304;4.870;2022-11-20T10:15:41;101275.66;;;14.86;53.12
69245;BME280;56357;52.304;4.870;2022-11-20T10:18:28;101265.00;;;15.11;52.62
69245;BME280;56357;52.304;4.870;2022-11-20T10:23:39;101267.44;;;15.08;52.37
69245;BME280;56357;52.304;4.870;2022-11-20T10:26:22;101260.94;;;15.19;52.22
69245;BME280;56357;52.304;4.870;2022-11-20T10:29:05;101249.72;;;15.30;52.28
69245;BME280;56357;52.304;4.870;2022-11-20T10:31:38;101241.50;;;15.24;51.92
69245;BME280;56357;52.304;4.870;2022-11-20T10:34:18;101239.03;;;15.11;52.20
69245;BME280;56357;52.304;4.870;2022-11-20T10:37:02;101244.97;;;15.14;52.72
69245;BME280;56357;52.304;4.870;2022-11-20T10:39:49;101230.66;;;15.27;52.11
69245;BME280;56357;52.304;4.870;2022-11-20T10:42:30;101214.69;;;15.39;52.10
69245;BME280;56357;52.304;4.870;2022-11-20T10:48:12;101201.34;;;15.25;52.67
69245;BME280;56357;52.304;4.870;2022-11-20T10:50:54;101194.06;;;15.24;52.06
69245;BME280;56357;52.304;4.870;2022-11-20T10:54:03;101197.78;;;15.29;52.16
69245;BME280;56357;52.304;4.870;2022-11-20T10:56:47;101193.84;;;15.42;52.38
69245;BME280;56357;52.304;4.870;2022-11-20T11:01:59;101184.94;;;15.28;52.82
69245;BME280;56357;52.304;4.870;2022-11-20T11:06:59;101175.06;;;15.21;53.01
69245;BME280;56357;52.304;4.870;2022-11-20T11:09:35;101170.34;;;15.21;52.87
69245;BME280;56357;52.304;4.870;2022-11-20T11:12:08;101168.69;;;15.25;52.69
69245;BME280;56357;52.304;4.870;2022-11-20T11:14:48;101173.94;;;15.22;52.93
69245;BME280;56357;52.304;4.870;2022-11-20T11:17:30;101157.38;;;15.32;52.57
69245;BME280;56357;52.304;4.870;2022-11-20T11:22:32;101143.63;;;15.42;51.77
69245;BME280;56357;52.304;4.870;2022-11-20T11:24:59;101136.84;;;15.76;52.00
69245;BME280;56357;52.304;4.870;2022-11-20T11:27:26;101130.53;;;15.64;52.67
69245;BME280;56357;52.304;4.870;2022-11-20T11:30:15;101124.81;;;15.76;53.39
69245;BME280;56357;52.304;4.870;2022-11-20T11:32:42;101123.28;;;15.63;53.87
69245;BME280;56357;52.304;4.870;2022-11-20T11:35:24;101122.00;;;15.92;53.49
69245;BME280;56357;52.304;4.870;2022-11-20T11:37:54;101105.53;;;15.74;53.34
69245;BME280;56357;52.304;4.870;2022-11-20T11:40:21;101108.84;;;15.49;53.51
69245;BME280;56357;52.304;4.870;2022-11-20T11:42:54;101098.84;;;15.53;53.09
69245;BME280;56357;52.304;4.870;2022-11-20T11:45:21;101095.28;;;15.80;53.32
69245;BME280;56357;52.304;4.870;2022-11-20T11:47:48;101095.09;;;15.86;54.19
69245;BME280;56357;52.304;4.870;2022-11-20T11:53:02;101089.56;;;15.91;54.66
69245;BME280;56357;52.304;4.870;2022-11-20T11:55:34;101083.13;;;16.12;55.14
69245;BME280;56357;52.304;4.870;2022-11-20T11:58:17;101080.88;;;15.88;55.60
69245;BME280;56357;52.304;4.870;2022-11-20T12:03:46;101073.22;;;15.78;55.12
69245;BME280;56357;52.304;4.870;2022-11-20T12:06:18;101057.53;;;15.77;54.31
69245;BME280;56357;52.304;4.870;2022-11-20T12:08:55;101052.75;;;15.73;54.29
69245;BME280;56357;52.304;4.870;2022-11-20T12:14:26;101047.38;;;15.66;54.68
69245;BME280;56357;52.304;4.870;2022-11-20T12:16:54;101044.97;;;15.96;54.92
69245;BME280;56357;52.304;4.870;2022-11-20T12:19:23;101032.41;;;15.99;54.71
69245;BME280;56357;52.304;4.870;2022-11-20T12:21:54;101036.50;;;15.91;55.15
69245;BME280;56357;52.304;4.870;2022-11-20T12:43:39;100983.00;;;16.04;55.38
69245;BME280;56357;52.304;4.870;2022-11-20T12:46:46;100972.56;;;15.95;54.98
69245;BME280;56357;52.304;4.870;2022-11-20T12:49:37;100958.78;;;15.83;55.22
69245;BME280;56357;52.304;4.870;2022-11-20T12:55:16;100943.47;;;15.91;55.26
69245;BME280;56357;52.304;4.870;2022-11-20T12:57:58;100955.03;;;15.99;54.93
69245;BME280;56357;52.304;4.870;2022-11-20T13:00:30;100953.72;;;16.07;55.24
69245;BME280;56357;52.304;4.870;2022-11-20T13:03:29;100960.28;;;16.22;53.98
69245;BME280;56357;52.304;4.870;2022-11-20T13:06:13;100973.09;;;16.18;53.61
69245;BME280;56357;52.304;4.870;2022-11-20T13:08:45;100962.97;;;16.12;54.29
69245;BME280;56357;52.304;4.870;2022-11-20T13:19:52;100967.03;;;16.26;53.72
69245;BME280;56357;52.304;4.870;2022-11-20T13:22:42;100960.25;;;16.17;53.93
69245;BME280;56357;52.304;4.870;2022-11-20T13:25:34;100946.44;;;16.37;53.41
69245;BME280;56357;52.304;4.870;2022-11-20T13:30:49;100922.66;;;16.35;53.69
69245;BME280;56357;52.304;4.870;2022-11-20T13:33:25;100922.91;;;16.33;53.87
69245;BME280;56357;52.304;4.870;2022-11-20T13:36:07;100924.22;;;16.21;54.06
69245;BME280;56357;52.304;4.870;2022-11-20T13:38:47;100917.41;;;16.38;53.81
69245;BME280;56357;52.304;4.870;2022-11-20T13:44:14;100919.63;;;16.36;53.50
69245;BME280;56357;52.304;4.870;2022-11-20T13:46:43;100907.28;;;16.32;53.53
69245;BME280;56357;52.304;4.870;2022-11-20T13:49:18;100888.78;;;16.26;53.70
69245;BME280;56357;52.304;4.870;2022-11-20T13:51:50;100887.22;;;16.40;53.80
69245;BME280;56357;52.304;4.870;2022-11-20T14:02:21;100853.97;;;16.44;53.23
69245;BME280;56357;52.304;4.870;2022-11-20T14:04:51;100845.91;;;16.47;53.50
69245;BME280;56357;52.304;4.870;2022-11-20T14:07:20;100837.72;;;16.41;53.50
69245;BME280;56357;52.304;4.870;2022-11-20T14:09:53;100848.16;;;16.51;53.93
69245;BME280;56357;52.304;4.870;2022-11-20T14:12:22;100851.75;;;16.46;53.70
69245;BME280;56357;52.304;4.870;2022-11-20T14:14:53;100845.03;;;16.47;53.76
69245;BME280;56357;52.304;4.870;2022-11-20T14:17:23;100853.22;;;16.54;53.64
69245;BME280;56357;52.304;4.870;2022-11-20T14:19:51;100852.00;;;16.44;53.96
69245;BME280;56357;52.304;4.870;2022-11-20T14:22:21;100846.97;;;16.46;53.61
69245;BME280;56357;52.304;4.870;2022-11-20T14:25:00;100841.41;;;16.46;53.61
69245;BME280;56357;52.304;4.870;2022-11-20T14:27:27;100827.97;;;16.43;53.64